Time;durP1;ratioP1;P1;durP2;ratioP2;P2;SDS_P1;SDS_P2;PMS_P1;PMS_P2;Temp;Humidity;BMP_temperature;BMP_pressure;BME280_temperature;BME280_humidity;BME280_pressure;Samples;Min_cycle;Max_cycle;Signal;HPM_P1;HPM_P2
2023/05/30 00:01:57;;;;;;;3.35;3.05;;;;;;;;;;5118247;28;20260;-63
2023/05/30 00:04:25;;;;;;;3.45;3.15;;;;;;;;;;5118065;28;20210;-63
2023/05/30 00:06:54;;;;;;;3.78;3.05;;;;;;;;;;5118073;28;20230;-63
2023/05/30 00:09:22;;;;;;;3.55;2.90;;;;;;;;;;5117523;28;20252;-61
2023/05/30 00:11:49;;;;;;;3.30;3.00;;;;;;;;;;5118190;28;20226;-63
2023/05/30 00:14:20;;;;;;;3.35;2.88;;;;;;;;;;5118862;28;20202;-62
2023/05/30 00:16:47;;;;;;;3.65;2.65;;;;;;;;;;5118633;28;20229;-62
2023/05/30 00:19:15;;;;;;;3.17;2.88;;;;;;;;;;5118226;28;20743;-62
2023/05/30 00:21:45;;;;;;;3.78;3.05;;;;;;;;;;5118555;28;20214;-61
2023/05/30 00:24:14;;;;;;;3.35;3.03;;;;;;;;;;5118260;28;20295;-61
2023/05/30 00:26:41;;;;;;;3.35;2.92;;;;;;;;;;5117828;28;20211;-62
2023/05/30 00:29:09;;;;;;;4.25;3.03;;;;;;;;;;5118278;28;20198;-62
2023/05/30 00:31:36;;;;;;;3.15;2.78;;;;;;;;;;5117972;28;20302;-61
2023/05/30 00:34:04;;;;;;;4.45;2.60;;;;;;;;;;5117956;28;20583;-61
2023/05/30 00:36:31;;;;;;;4.20;2.88;;;;;;;;;;5118265;28;20226;-61
2023/05/30 00:38:59;;;;;;;2.97;2.67;;;;;;;;;;5116490;28;20227;-61
2023/05/30 00:41:29;;;;;;;3.30;3.00;;;;;;;;;;5118448;28;20206;-61
2023/05/30 00:43:56;;;;;;;3.65;2.70;;;;;;;;;;5118181;28;20542;-62
2023/05/30 00:46:29;;;;;;;3.10;2.80;;;;;;;;;;5118552;28;20203;-61
2023/05/30 00:48:56;;;;;;;3.70;3.03;;;;;;;;;;5118309;28;20290;-62
2023/05/30 00:51:25;;;;;;;4.40;3.00;;;;;;;;;;5117662;28;20203;-62
2023/05/30 00:53:53;;;;;;;4.65;2.78;;;;;;;;;;5117962;28;20202;-62
2023/05/30 00:56:23;;;;;;;4.53;2.80;;;;;;;;;;5118082;28;20268;-61
2023/05/30 00:58:52;;;;;;;3.08;2.78;;;;;;;;;;5118058;28;20238;-62
2023/05/30 01:01:20;;;;;;;3.10;2.58;;;;;;;;;;5118045;28;20210;-62
2023/05/30 01:03:49;;;;;;;4.53;3.00;;;;;;;;;;5118164;28;20210;-61
2023/05/30 01:06:17;;;;;;;3.47;2.38;;;;;;;;;;5117924;28;20586;-62
2023/05/30 01:08:44;;;;;;;3.45;2.47;;;;;;;;;;5117996;28;20207;-61
2023/05/30 01:11:21;;;;;;;2.83;2.42;;;;;;;;;;5117888;28;20214;-62
2023/05/30 01:13:53;;;;;;;3.60;2.72;;;;;;;;;;5117488;28;20474;-62
2023/05/30 01:16:25;;;;;;;4.15;2.55;;;;;;;;;;5117705;28;20462;-61
2023/05/30 01:18:55;;;;;;;3.38;2.63;;;;;;;;;;5117589;28;20269;-62
2023/05/30 01:21:23;;;;;;;5.22;2.92;;;;;;;;;;5117627;28;20272;-61
2023/05/30 01:24:00;;;;;;;3.33;2.67;;;;;;;;;;5118311;28;20203;-62
2023/05/30 01:26:45;;;;;;;3.33;2.70;;;;;;;;;;5117485;28;20203;-62
2023/05/30 01:29:17;;;;;;;2.72;2.35;;;;;;;;;;5117154;28;20207;-61
2023/05/30 01:31:46;;;;;;;2.60;2.40;;;;;;;;;;5117638;28;20203;-61
2023/05/30 01:34:14;;;;;;;3.42;2.22;;;;;;;;;;5117736;28;20482;-61
2023/05/30 01:36:42;;;;;;;3.15;2.40;;;;;;;;;;5117567;28;20644;-62
2023/05/30 01:39:10;;;;;;;3.15;2.53;;;;;;;;;;5117562;28;20223;-61
2023/05/30 01:41:39;;;;;;;2.85;2.53;;;;;;;;;;5117807;28;20498;-61
2023/05/30 01:44:11;;;;;;;3.13;2.55;;;;;;;;;;5121427;28;20625;-61
2023/05/30 01:46:41;;;;;;;2.78;2.53;;;;;;;;;;5121579;28;20222;-62
2023/05/30 01:49:14;;;;;;;2.75;2.40;;;;;;;;;;5121355;28;20198;-61
2023/05/30 01:51:46;;;;;;;3.20;2.47;;;;;;;;;;5120817;27;20587;-62
2023/05/30 01:54:16;;;;;;;5.32;2.67;;;;;;;;;;5121443;28;20209;-61
2023/05/30 01:56:44;;;;;;;3.88;2.63;;;;;;;;;;5120807;28;20257;-62
2023/05/30 01:59:12;;;;;;;3.17;2.67;;;;;;;;;;5120629;28;20687;-61
2023/05/30 02:01:41;;;;;;;2.75;2.33;;;;;;;;;;5121364;28;20267;-61
2023/05/30 02:04:09;;;;;;;2.90;2.47;;;;;;;;;;5120754;28;20210;-62
2023/05/30 02:06:37;;;;;;;2.85;2.40;;;;;;;;;;5120408;28;20240;-62
2023/05/30 02:09:06;;;;;;;3.28;2.70;;;;;;;;;;5121243;28;20206;-63
2023/05/30 02:11:33;;;;;;;3.00;2.50;;;;;;;;;;5120555;28;20252;-62
2023/05/30 02:14:01;;;;;;;2.78;2.30;;;;;;;;;;5120749;28;20203;-62
2023/05/30 02:16:29;;;;;;;3.20;2.70;;;;;;;;;;5120675;28;20229;-63
2023/05/30 02:18:58;;;;;;;3.22;2.58;;;;;;;;;;5120380;28;20521;-63
2023/05/30 02:21:26;;;;;;;2.63;2.05;;;;;;;;;;5120721;28;20207;-62
2023/05/30 02:23:53;;;;;;;3.20;2.35;;;;;;;;;;5120366;28;20211;-63
2023/05/30 02:26:21;;;;;;;2.53;2.17;;;;;;;;;;5120651;28;20571;-63
2023/05/30 02:28:49;;;;;;;3.17;2.40;;;;;;;;;;5120309;28;20199;-63
2023/05/30 02:31:16;;;;;;;3.40;2.45;;;;;;;;;;5120169;28;20206;-63
2023/05/30 02:33:44;;;;;;;3.70;2.45;;;;;;;;;;5120116;28;20202;-63
2023/05/30 02:36:14;;;;;;;3.25;2.65;;;;;;;;;;5119818;28;20274;-62
2023/05/30 02:38:41;;;;;;;3.28;2.58;;;;;;;;;;5120225;28;20243;-62
2023/05/30 02:41:09;;;;;;;2.70;2.30;;;;;;;;;;5120727;28;20647;-63
2023/05/30 02:43:36;;;;;;;2.88;2.47;;;;;;;;;;5120343;28;20202;-62
2023/05/30 02:46:05;;;;;;;2.88;2.38;;;;;;;;;;5120064;28;20338;-62
2023/05/30 02:48:32;;;;;;;4.20;2.53;;;;;;;;;;5119892;28;20632;-62
2023/05/30 02:51:00;;;;;;;2.80;2.33;;;;;;;;;;5120193;28;20540;-61
2023/05/30 02:53:29;;;;;;;3.80;2.35;;;;;;;;;;5120410;27;20264;-62
2023/05/30 02:55:57;;;;;;;3.28;2.38;;;;;;;;;;5119708;28;20214;-62
2023/05/30 02:58:25;;;;;;;2.95;2.20;;;;;;;;;;5119508;27;20293;-60
2023/05/30 03:00:52;;;;;;;3.15;2.17;;;;;;;;;;5119762;28;20203;-61
2023/05/30 03:03:21;;;;;;;3.38;2.45;;;;;;;;;;5119371;28;20210;-63
2023/05/30 03:05:49;;;;;;;2.78;2.35;;;;;;;;;;5120061;28;20539;-61
2023/05/30 03:08:16;;;;;;;3.08;2.50;;;;;;;;;;5119481;28;20215;-62
2023/05/30 03:10:45;;;;;;;3.97;2.42;;;;;;;;;;5119590;28;20579;-62
2023/05/30 03:13:13;;;;;;;3.03;2.30;;;;;;;;;;5119715;28;20539;-62
2023/05/30 03:15:40;;;;;;;3.45;2.50;;;;;;;;;;5119294;28;20199;-62
2023/05/30 03:18:08;;;;;;;3.47;2.58;;;;;;;;;;5119102;27;20202;-63
2023/05/30 03:20:36;;;;;;;3.17;2.50;;;;;;;;;;5119049;28;20291;-62
2023/05/30 03:23:04;;;;;;;2.97;2.58;;;;;;;;;;5118492;28;20272;-62
2023/05/30 03:25:32;;;;;;;2.75;2.47;;;;;;;;;;5119268;28;20203;-62
2023/05/30 03:28:05;;;;;;;3.65;2.53;;;;;;;;;;5119102;28;20203;-62
2023/05/30 03:30:33;;;;;;;4.05;2.42;;;;;;;;;;5118686;28;20571;-62
2023/05/30 03:33:01;;;;;;;2.90;2.22;;;;;;;;;;5119114;28;20225;-61
2023/05/30 03:35:29;;;;;;;2.60;2.08;;;;;;;;;;5118354;28;20230;-62
2023/05/30 03:37:56;;;;;;;2.60;2.17;;;;;;;;;;5118751;28;21179;-62
2023/05/30 03:40:24;;;;;;;3.67;2.47;;;;;;;;;;5118236;28;20229;-61
2023/05/30 03:42:51;;;;;;;2.75;2.15;;;;;;;;;;5118214;28;20593;-61
2023/05/30 03:45:21;;;;;;;3.55;2.30;;;;;;;;;;5117953;28;20202;-63
2023/05/30 03:47:48;;;;;;;3.30;2.20;;;;;;;;;;5118084;28;20203;-62
2023/05/30 03:50:16;;;;;;;3.10;2.40;;;;;;;;;;5118077;28;20236;-62
2023/05/30 03:52:43;;;;;;;2.88;2.40;;;;;;;;;;5118428;27;20211;-62
2023/05/30 03:55:11;;;;;;;2.35;2.15;;;;;;;;;;5118706;28;20249;-62
2023/05/30 03:57:39;;;;;;;3.95;2.53;;;;;;;;;;5117801;28;20380;-62
2023/05/30 04:00:07;;;;;;;4.07;2.67;;;;;;;;;;5117324;28;20234;-62
2023/05/30 04:02:35;;;;;;;2.83;2.20;;;;;;;;;;5117883;28;20232;-62
2023/05/30 04:05:03;;;;;;;3.80;2.30;;;;;;;;;;5116973;28;20215;-62
2023/05/30 04:07:35;;;;;;;3.58;2.20;;;;;;;;;;5117843;28;20203;-62
2023/05/30 04:10:02;;;;;;;2.35;2.00;;;;;;;;;;5116691;28;20199;-62
2023/05/30 04:12:30;;;;;;;2.47;2.13;;;;;;;;;;5117166;28;20203;-62
2023/05/30 04:14:57;;;;;;;2.47;2.28;;;;;;;;;;5116554;28;20579;-63
2023/05/30 04:17:25;;;;;;;2.78;2.03;;;;;;;;;;5117937;28;20218;-63
2023/05/30 04:19:54;;;;;;;2.92;2.00;;;;;;;;;;5117717;28;20276;-62
2023/05/30 04:22:21;;;;;;;2.97;2.20;;;;;;;;;;5117802;28;20602;-63
2023/05/30 04:24:49;;;;;;;3.58;2.25;;;;;;;;;;5117346;28;20203;-63
2023/05/30 04:27:17;;;;;;;3.50;2.40;;;;;;;;;;5117098;28;20267;-62
2023/05/30 04:29:46;;;;;;;3.50;2.10;;;;;;;;;;5116961;28;20199;-62
2023/05/30 04:32:13;;;;;;;3.33;2.17;;;;;;;;;;5116842;28;20297;-63
2023/05/30 04:34:41;;;;;;;3.47;2.38;;;;;;;;;;5115858;28;20230;-62
2023/05/30 04:37:10;;;;;;;2.85;2.13;;;;;;;;;;5116415;28;20210;-63
2023/05/30 04:39:38;;;;;;;2.83;2.50;;;;;;;;;;5117518;28;20227;-62
2023/05/30 04:42:06;;;;;;;4.00;2.67;;;;;;;;;;5115879;28;20591;-62
2023/05/30 04:44:38;;;;;;;2.63;2.05;;;;;;;;;;5116240;28;20207;-62
2023/05/30 04:47:07;;;;;;;3.38;2.22;;;;;;;;;;5116628;28;20217;-62
2023/05/30 04:49:39;;;;;;;2.50;2.25;;;;;;;;;;5117350;28;20221;-63
2023/05/30 04:52:07;;;;;;;3.47;2.42;;;;;;;;;;5116563;28;20214;-62
2023/05/30 04:54:35;;;;;;;4.15;2.50;;;;;;;;;;5115533;28;20583;-62
2023/05/30 04:57:03;;;;;;;3.35;2.40;;;;;;;;;;5115702;28;20210;-63
2023/05/30 04:59:30;;;;;;;3.28;2.33;;;;;;;;;;5114838;28;20610;-62
2023/05/30 05:01:58;;;;;;;4.53;2.40;;;;;;;;;;5114378;28;20210;-62
2023/05/30 05:04:25;;;;;;;3.80;2.28;;;;;;;;;;5113852;28;20233;-63
2023/05/30 05:06:53;;;;;;;4.07;2.67;;;;;;;;;;5115636;28;20551;-62
2023/05/30 05:09:21;;;;;;;3.95;2.60;;;;;;;;;;5113843;28;20214;-63
2023/05/30 05:11:49;;;;;;;3.58;2.50;;;;;;;;;;5113545;28;20602;-63
2023/05/30 05:14:17;;;;;;;4.18;2.45;;;;;;;;;;5113897;28;20202;-62
2023/05/30 05:16:44;;;;;;;3.17;2.47;;;;;;;;;;5114327;28;20211;-62
2023/05/30 05:19:11;;;;;;;3.55;2.67;;;;;;;;;;5116685;28;20621;-62
2023/05/30 05:21:39;;;;;;;4.75;2.50;;;;;;;;;;5116513;28;20202;-63
2023/05/30 05:24:07;;;;;;;4.15;2.65;;;;;;;;;;5116557;28;20206;-63
2023/05/30 05:26:34;;;;;;;2.80;2.50;;;;;;;;;;5117764;28;20203;-63
2023/05/30 05:29:03;;;;;;;5.70;2.70;;;;;;;;;;5118603;28;20213;-63
2023/05/30 05:31:32;;;;;;;3.95;2.83;;;;;;;;;;5117920;28;20217;-63
2023/05/30 05:34:00;;;;;;;3.78;2.80;;;;;;;;;;5117882;28;20239;-63
2023/05/30 05:36:27;;;;;;;4.03;2.80;;;;;;;;;;5117867;28;20444;-63
2023/05/30 05:38:55;;;;;;;4.55;2.45;;;;;;;;;;5117652;28;20206;-62
2023/05/30 05:41:22;;;;;;;3.85;2.20;;;;;;;;;;5117559;28;20602;-63
2023/05/30 05:43:49;;;;;;;4.30;2.42;;;;;;;;;;5116548;28;20202;-62
2023/05/30 05:46:18;;;;;;;3.80;2.60;;;;;;;;;;5117217;28;20207;-62
2023/05/30 05:48:46;;;;;;;3.38;2.38;;;;;;;;;;5116709;28;20216;-63
2023/05/30 05:51:13;;;;;;;3.58;2.40;;;;;;;;;;5117719;28;20191;-63
2023/05/30 05:53:40;;;;;;;4.25;2.40;;;;;;;;;;5117662;28;20213;-63
2023/05/30 05:56:08;;;;;;;2.80;2.17;;;;;;;;;;5116409;28;20225;-61
2023/05/30 05:58:35;;;;;;;5.35;2.45;;;;;;;;;;5117728;28;20506;-61
2023/05/30 06:01:02;;;;;;;4.80;2.72;;;;;;;;;;5115844;28;20222;-61
2023/05/30 06:03:31;;;;;;;3.95;2.40;;;;;;;;;;5116846;28;20195;-63
2023/05/30 06:05:58;;;;;;;3.67;2.40;;;;;;;;;;5116866;28;20206;-63
2023/05/30 06:08:26;;;;;;;5.38;2.47;;;;;;;;;;5117219;28;20456;-64
2023/05/30 06:10:53;;;;;;;4.25;2.33;;;;;;;;;;5116710;28;20210;-63
2023/05/30 06:13:20;;;;;;;6.38;3.08;;;;;;;;;;5117182;28;20210;-62
2023/05/30 06:15:48;;;;;;;5.63;2.92;;;;;;;;;;5117567;28;20218;-62
2023/05/30 06:18:15;;;;;;;5.35;2.88;;;;;;;;;;5116455;28;20202;-62
2023/05/30 06:20:44;;;;;;;6.28;2.95;;;;;;;;;;5118091;28;20226;-62
2023/05/30 06:23:11;;;;;;;6.28;3.00;;;;;;;;;;5117499;28;20271;-61
2023/05/30 06:25:39;;;;;;;6.57;3.03;;;;;;;;;;5117603;28;20203;-61
2023/05/30 06:28:06;;;;;;;5.18;2.92;;;;;;;;;;5117192;28;20202;-62
2023/05/30 06:30:33;;;;;;;4.18;2.65;;;;;;;;;;5116711;28;20199;-63
2023/05/30 06:33:01;;;;;;;4.22;2.88;;;;;;;;;;5117093;28;20221;-62
2023/05/30 06:35:31;;;;;;;4.63;2.90;;;;;;;;;;5117004;28;20238;-63
2023/05/30 06:38:00;;;;;;;5.35;2.88;;;;;;;;;;5115573;28;20203;-63
2023/05/30 06:40:27;;;;;;;3.83;2.80;;;;;;;;;;5115899;28;20637;-62
2023/05/30 06:42:55;;;;;;;4.07;2.28;;;;;;;;;;5114977;28;20213;-62
2023/05/30 06:45:22;;;;;;;4.07;2.75;;;;;;;;;;5115989;28;20496;-62
2023/05/30 06:47:49;;;;;;;5.78;2.50;;;;;;;;;;5115698;28;20214;-63
2023/05/30 06:50:17;;;;;;;4.93;2.50;;;;;;;;;;5115226;28;20591;-63
2023/05/30 06:52:44;;;;;;;4.90;2.55;;;;;;;;;;5116716;28;20209;-62
2023/05/30 06:55:13;;;;;;;4.75;2.40;;;;;;;;;;5117230;28;20211;-61
2023/05/30 06:57:40;;;;;;;3.40;2.40;;;;;;;;;;5117124;28;20234;-62
2023/05/30 07:00:09;;;;;;;5.40;2.63;;;;;;;;;;5115487;28;20227;-62
2023/05/30 07:02:36;;;;;;;4.47;2.83;;;;;;;;;;5115890;28;20602;-61
2023/05/30 07:05:04;;;;;;;5.47;2.50;;;;;;;;;;5116038;28;20214;-63
2023/05/30 07:07:31;;;;;;;5.63;2.67;;;;;;;;;;5116249;28;20195;-62
2023/05/30 07:09:58;;;;;;;3.67;2.42;;;;;;;;;;5115936;28;20199;-63
2023/05/30 07:12:27;;;;;;;4.43;2.60;;;;;;;;;;5115565;28;20590;-62
2023/05/30 07:14:55;;;;;;;6.47;2.70;;;;;;;;;;5116472;28;20708;-62
2023/05/30 07:17:22;;;;;;;3.72;2.40;;;;;;;;;;5115434;28;20194;-62
2023/05/30 07:19:49;;;;;;;3.35;2.33;;;;;;;;;;5115398;28;20782;-63
2023/05/30 07:22:16;;;;;;;6.28;2.83;;;;;;;;;;5115585;28;20213;-63
2023/05/30 07:24:44;;;;;;;4.40;2.50;;;;;;;;;;5113625;28;20516;-63
2023/05/30 07:27:11;;;;;;;4.50;3.00;;;;;;;;;;5115170;28;20217;-62
2023/05/30 07:29:40;;;;;;;4.97;2.72;;;;;;;;;;5116059;28;20305;-62
2023/05/30 07:32:10;;;;;;;4.65;2.63;;;;;;;;;;5115229;28;20199;-62
2023/05/30 07:34:38;;;;;;;4.57;2.55;;;;;;;;;;5114879;28;20246;-62
2023/05/30 07:37:05;;;;;;;4.55;2.70;;;;;;;;;;5115104;28;20298;-62
2023/05/30 07:39:32;;;;;;;4.25;2.60;;;;;;;;;;5114288;28;20195;-63
2023/05/30 07:42:00;;;;;;;3.80;2.80;;;;;;;;;;5114042;28;20261;-63
2023/05/30 07:44:27;;;;;;;5.90;2.70;;;;;;;;;;5114192;28;20203;-62
2023/05/30 07:46:56;;;;;;;5.10;2.75;;;;;;;;;;5115022;28;20202;-62
2023/05/30 07:49:24;;;;;;;4.75;2.75;;;;;;;;;;5113805;28;20195;-63
2023/05/30 07:51:51;;;;;;;4.95;2.78;;;;;;;;;;5115511;28;20202;-63
2023/05/30 07:54:19;;;;;;;3.90;2.65;;;;;;;;;;5114649;28;20575;-63
2023/05/30 07:56:46;;;;;;;4.50;2.40;;;;;;;;;;5115183;28;20214;-62
2023/05/30 07:59:13;;;;;;;5.18;2.55;;;;;;;;;;5114712;28;20203;-62
2023/05/30 08:01:41;;;;;;;4.45;2.50;;;;;;;;;;5113913;28;20230;-63
2023/05/30 08:04:10;;;;;;;5.53;3.00;;;;;;;;;;5115117;28;20510;-63
2023/05/30 08:06:38;;;;;;;4.38;2.17;;;;;;;;;;5115216;28;20203;-63
2023/05/30 08:09:05;;;;;;;4.13;2.50;;;;;;;;;;5114168;28;20324;-62
2023/05/30 08:11:32;;;;;;;3.10;2.13;;;;;;;;;;5114737;28;20225;-62
2023/05/30 08:14:00;;;;;;;4.65;2.17;;;;;;;;;;5114590;28;20203;-62
2023/05/30 08:16:28;;;;;;;5.10;2.60;;;;;;;;;;5114183;28;20210;-62
2023/05/30 08:18:55;;;;;;;4.47;2.20;;;;;;;;;;5115435;28;20199;-62
2023/05/30 08:21:24;;;;;;;3.95;2.38;;;;;;;;;;5114457;28;20317;-62
2023/05/30 08:23:52;;;;;;;3.22;2.10;;;;;;;;;;5114550;28;20221;-62
2023/05/30 08:26:20;;;;;;;3.80;2.13;;;;;;;;;;5114701;28;20514;-63
2023/05/30 08:28:48;;;;;;;3.90;2.28;;;;;;;;;;5113717;28;20203;-63
2023/05/30 08:31:15;;;;;;;4.60;2.42;;;;;;;;;;5113911;28;20202;-63
2023/05/30 08:33:43;;;;;;;4.88;2.35;;;;;;;;;;5113822;28;20202;-62
2023/05/30 08:36:10;;;;;;;3.05;2.03;;;;;;;;;;5115467;28;20235;-63
2023/05/30 08:38:39;;;;;;;5.00;2.55;;;;;;;;;;5113552;28;20235;-63
2023/05/30 08:41:06;;;;;;;4.10;2.22;;;;;;;;;;5114132;28;20226;-63
2023/05/30 08:43:34;;;;;;;3.40;1.92;;;;;;;;;;5114282;28;20203;-62
2023/05/30 08:46:02;;;;;;;3.05;2.03;;;;;;;;;;5113110;28;20203;-62
2023/05/30 08:48:31;;;;;;;3.50;2.20;;;;;;;;;;5111856;28;20565;-63
2023/05/30 08:50:58;;;;;;;3.47;2.10;;;;;;;;;;5114414;28;20310;-63
2023/05/30 08:53:27;;;;;;;3.42;2.00;;;;;;;;;;5118558;28;20207;-62
2023/05/30 08:56:00;;;;;;;4.25;2.30;;;;;;;;;;5116990;28;20213;-63
2023/05/30 08:58:29;;;;;;;4.72;2.30;;;;;;;;;;5116992;28;20203;-62
2023/05/30 09:00:58;;;;;;;5.20;2.20;;;;;;;;;;5118137;28;20219;-62
2023/05/30 09:03:25;;;;;;;5.43;2.38;;;;;;;;;;5117954;28;20214;-63
2023/05/30 09:05:53;;;;;;;3.67;2.00;;;;;;;;;;5117444;28;20206;-63
2023/05/30 09:08:24;;;;;;;3.75;1.90;;;;;;;;;;5117857;28;20211;-62
2023/05/30 09:10:51;;;;;;;3.92;2.25;;;;;;;;;;5117680;28;20203;-62
2023/05/30 09:13:20;;;;;;;4.22;2.00;;;;;;;;;;5117025;28;20340;-63
2023/05/30 09:15:48;;;;;;;4.15;2.42;;;;;;;;;;5117003;28;20438;-63
2023/05/30 09:18:16;;;;;;;3.40;2.13;;;;;;;;;;5118105;28;20218;-62
2023/05/30 09:20:44;;;;;;;3.83;2.20;;;;;;;;;;5117733;28;20311;-63
2023/05/30 09:23:11;;;;;;;3.85;2.08;;;;;;;;;;5117368;28;20444;-63
2023/05/30 09:25:43;;;;;;;3.47;2.13;;;;;;;;;;5117892;28;20479;-63
2023/05/30 09:28:11;;;;;;;3.17;2.00;;;;;;;;;;5117833;28;20246;-63
2023/05/30 09:30:53;;;;;;;3.05;2.13;;;;;;;;;;5115863;28;20194;-63
2023/05/30 09:33:21;;;;;;;3.53;2.25;;;;;;;;;;5116934;28;20611;-63
2023/05/30 09:35:52;;;;;;;4.40;2.08;;;;;;;;;;5116675;28;20231;-63
2023/05/30 09:38:22;;;;;;;4.03;1.98;;;;;;;;;;5117675;28;20210;-63
2023/05/30 09:40:50;;;;;;;4.68;2.13;;;;;;;;;;5116753;28;20230;-63
2023/05/30 09:43:33;;;;;;;3.65;1.90;;;;;;;;;;5115830;28;20234;-63
2023/05/30 09:46:03;;;;;;;4.85;2.20;;;;;;;;;;5116458;28;20214;-63
2023/05/30 09:48:30;;;;;;;3.97;1.95;;;;;;;;;;5115305;28;20267;-63
2023/05/30 09:51:00;;;;;;;3.38;2.00;;;;;;;;;;5117090;28;20199;-62
2023/05/30 09:53:29;;;;;;;3.92;2.38;;;;;;;;;;5116540;28;20202;-63
2023/05/30 09:55:57;;;;;;;4.00;2.28;;;;;;;;;;5118388;28;20238;-63
2023/05/30 09:58:24;;;;;;;4.10;2.20;;;;;;;;;;5117733;28;20199;-63
2023/05/30 10:00:52;;;;;;;4.50;1.90;;;;;;;;;;5116145;28;20514;-63
2023/05/30 10:03:22;;;;;;;4.68;2.15;;;;;;;;;;5116114;28;20253;-63
2023/05/30 10:05:49;;;;;;;3.83;2.15;;;;;;;;;;5115148;28;20457;-63
2023/05/30 10:08:17;;;;;;;3.10;2.00;;;;;;;;;;5115422;28;20219;-63
2023/05/30 10:10:45;;;;;;;3.17;1.98;;;;;;;;;;5113416;28;20206;-63
2023/05/30 10:13:12;;;;;;;3.25;2.00;;;;;;;;;;5115632;28;20597;-63
2023/05/30 10:15:39;;;;;;;3.42;2.03;;;;;;;;;;5116004;28;20221;-63
2023/05/30 10:18:07;;;;;;;3.85;2.10;;;;;;;;;;5115763;28;20232;-62
2023/05/30 10:20:37;;;;;;;3.38;2.08;;;;;;;;;;5114291;28;20218;-63
2023/05/30 10:23:07;;;;;;;3.40;1.85;;;;;;;;;;5115203;28;20230;-63
2023/05/30 10:25:36;;;;;;;3.85;2.10;;;;;;;;;;5115686;28;20203;-62
2023/05/30 10:28:04;;;;;;;2.42;1.58;;;;;;;;;;5115271;28;20457;-62
2023/05/30 10:30:32;;;;;;;3.55;2.30;;;;;;;;;;5114545;28;20306;-62
2023/05/30 10:33:02;;;;;;;4.75;1.80;;;;;;;;;;5114096;28;20226;-63
2023/05/30 10:35:31;;;;;;;3.72;1.98;;;;;;;;;;5114040;28;20295;-63
2023/05/30 10:38:00;;;;;;;2.83;1.85;;;;;;;;;;5116022;28;20199;-62
2023/05/30 10:40:35;;;;;;;3.70;1.88;;;;;;;;;;5115759;28;20203;-62
2023/05/30 10:43:16;;;;;;;3.40;2.00;;;;;;;;;;5113813;28;20227;-63
2023/05/30 10:45:49;;;;;;;2.90;1.80;;;;;;;;;;5115670;28;20213;-63
2023/05/30 10:48:26;;;;;;;2.67;1.80;;;;;;;;;;5114974;28;20468;-62
2023/05/30 10:50:56;;;;;;;3.20;1.60;;;;;;;;;;5113868;28;20202;-64
2023/05/30 10:53:25;;;;;;;2.45;1.88;;;;;;;;;;5113263;28;20259;-63
2023/05/30 10:55:52;;;;;;;2.58;1.73;;;;;;;;;;5113062;28;20213;-63
2023/05/30 10:58:38;;;;;;;3.28;1.70;;;;;;;;;;5114512;28;20203;-63
2023/05/30 11:01:25;;;;;;;3.35;1.60;;;;;;;;;;5112985;28;20206;-63
2023/05/30 11:04:03;;;;;;;3.63;1.75;;;;;;;;;;5112992;28;20202;-63
2023/05/30 11:06:33;;;;;;;2.50;1.70;;;;;;;;;;5113214;28;20429;-63
2023/05/30 11:09:07;;;;;;;4.47;1.98;;;;;;;;;;5113172;28;20291;-63
2023/05/30 11:11:35;;;;;;;3.42;1.95;;;;;;;;;;5112407;28;20203;-63
2023/05/30 11:14:05;;;;;;;3.05;1.75;;;;;;;;;;5113708;28;20663;-63
2023/05/30 11:16:33;;;;;;;2.55;1.90;;;;;;;;;;5113660;28;20206;-63
2023/05/30 11:19:11;;;;;;;2.42;2.00;;;;;;;;;;5113110;28;20242;-62
2023/05/30 11:21:56;;;;;;;3.03;1.80;;;;;;;;;;5114081;28;20301;-63
2023/05/30 11:24:25;;;;;;;3.30;1.85;;;;;;;;;;5113482;28;20201;-63
2023/05/30 11:27:00;;;;;;;3.30;2.10;;;;;;;;;;5114965;28;20602;-62
2023/05/30 11:29:31;;;;;;;2.90;1.70;;;;;;;;;;5114108;28;20202;-62
2023/05/30 11:31:59;;;;;;;2.63;1.80;;;;;;;;;;5113314;28;20568;-63
2023/05/30 11:34:26;;;;;;;4.78;2.17;;;;;;;;;;5113432;28;20237;-62
2023/05/30 11:36:53;;;;;;;3.67;1.73;;;;;;;;;;5113284;28;20563;-62
2023/05/30 11:39:21;;;;;;;2.13;1.50;;;;;;;;;;5113461;28;20583;-62
2023/05/30 11:41:50;;;;;;;3.13;1.92;;;;;;;;;;5112419;28;20334;-62
2023/05/30 11:44:18;;;;;;;3.33;1.83;;;;;;;;;;5110330;28;20226;-63
2023/05/30 11:46:45;;;;;;;2.63;1.85;;;;;;;;;;5113250;28;20210;-63
2023/05/30 11:49:13;;;;;;;2.40;1.70;;;;;;;;;;5113281;28;20574;-62
2023/05/30 11:51:42;;;;;;;2.10;1.70;;;;;;;;;;5112474;28;20199;-62
2023/05/30 11:54:10;;;;;;;3.45;1.90;;;;;;;;;;5112983;28;20216;-63
2023/05/30 11:56:38;;;;;;;2.72;1.88;;;;;;;;;;5112842;28;20203;-62
2023/05/30 11:59:08;;;;;;;3.75;1.75;;;;;;;;;;5111593;28;20580;-62
2023/05/30 12:01:36;;;;;;;3.50;1.67;;;;;;;;;;5112064;28;20307;-63
2023/05/30 12:04:03;;;;;;;1.95;1.63;;;;;;;;;;5112928;28;20556;-62
2023/05/30 12:06:33;;;;;;;3.42;1.50;;;;;;;;;;5114109;28;20599;-62
2023/05/30 12:09:00;;;;;;;1.90;1.60;;;;;;;;;;5112446;28;20226;-63
2023/05/30 12:11:27;;;;;;;2.25;1.70;;;;;;;;;;5112201;28;20202;-63
2023/05/30 12:13:55;;;;;;;2.30;1.58;;;;;;;;;;5112057;28;20234;-63
2023/05/30 12:16:24;;;;;;;2.30;1.70;;;;;;;;;;5113141;28;20221;-63
2023/05/30 12:18:52;;;;;;;2.50;1.50;;;;;;;;;;5113376;28;20325;-62
2023/05/30 12:21:20;;;;;;;2.83;1.60;;;;;;;;;;5113144;28;20241;-63
2023/05/30 12:23:48;;;;;;;2.65;1.65;;;;;;;;;;5113944;28;20209;-63
2023/05/30 12:26:19;;;;;;;2.67;1.65;;;;;;;;;;5111407;28;20372;-63
2023/05/30 12:28:49;;;;;;;3.95;1.63;;;;;;;;;;5112609;28;20620;-63
2023/05/30 12:31:23;;;;;;;2.05;1.58;;;;;;;;;;5112842;28;20267;-64
2023/05/30 12:33:51;;;;;;;3.20;1.80;;;;;;;;;;5114088;28;20209;-63
2023/05/30 12:36:21;;;;;;;3.83;1.73;;;;;;;;;;5114041;28;20199;-63
2023/05/30 12:38:48;;;;;;;3.05;1.60;;;;;;;;;;5100683;28;20206;-62
2023/05/30 12:41:16;;;;;;;3.60;1.50;;;;;;;;;;5109282;28;20215;-63
2023/05/30 12:43:43;;;;;;;2.10;1.70;;;;;;;;;;5090746;28;20227;-61
2023/05/30 12:46:13;;;;;;;2.65;1.58;;;;;;;;;;5090996;28;20213;-64
2023/05/30 12:48:41;;;;;;;2.30;1.70;;;;;;;;;;5091258;28;20239;-63
2023/05/30 12:51:10;;;;;;;2.58;1.63;;;;;;;;;;5091429;28;20218;-63
2023/05/30 12:53:37;;;;;;;2.88;1.33;;;;;;;;;;5089481;28;20364;-61
2023/05/30 12:56:05;;;;;;;3.50;1.92;;;;;;;;;;5112606;28;20246;-61
2023/05/30 12:58:33;;;;;;;1.92;1.40;;;;;;;;;;5113705;28;20199;-63
2023/05/30 13:01:00;;;;;;;2.40;1.52;;;;;;;;;;5111036;28;20191;-61
2023/05/30 13:03:28;;;;;;;1.73;1.52;;;;;;;;;;5112082;28;20215;-61
2023/05/30 13:05:55;;;;;;;2.20;1.40;;;;;;;;;;5111828;28;20255;-62
2023/05/30 13:08:24;;;;;;;2.35;1.40;;;;;;;;;;5110818;28;20287;-62
2023/05/30 13:10:52;;;;;;;2.80;1.70;;;;;;;;;;5111696;28;20207;-61
2023/05/30 13:13:19;;;;;;;1.80;1.50;;;;;;;;;;5112708;28;20211;-61
2023/05/30 13:15:47;;;;;;;2.22;1.80;;;;;;;;;;5112383;28;20199;-62
2023/05/30 13:18:15;;;;;;;2.28;1.48;;;;;;;;;;5112811;28;20211;-61
2023/05/30 13:20:43;;;;;;;3.05;1.63;;;;;;;;;;5112185;28;20199;-61
2023/05/30 13:23:10;;;;;;;2.42;1.52;;;;;;;;;;5113448;28;20219;-63
2023/05/30 13:25:39;;;;;;;2.13;1.60;;;;;;;;;;5113123;28;20210;-63
2023/05/30 13:28:06;;;;;;;2.35;1.50;;;;;;;;;;5113572;28;20560;-63
2023/05/30 13:30:33;;;;;;;2.67;1.70;;;;;;;;;;5112458;28;20630;-62
2023/05/30 13:33:01;;;;;;;3.80;1.70;;;;;;;;;;5112591;28;20183;-62
2023/05/30 13:35:28;;;;;;;2.60;1.58;;;;;;;;;;5111267;28;20249;-62
2023/05/30 13:37:57;;;;;;;1.90;1.65;;;;;;;;;;5111503;28;20203;-63
2023/05/30 13:40:24;;;;;;;2.88;1.65;;;;;;;;;;5116531;28;20203;-62
2023/05/30 13:42:53;;;;;;;3.22;1.70;;;;;;;;;;5116301;28;20219;-62
2023/05/30 13:45:21;;;;;;;2.10;1.33;;;;;;;;;;5115521;27;20362;-62
2023/05/30 13:47:50;;;;;;;3.90;2.10;;;;;;;;;;5115640;27;20594;-62
2023/05/30 13:50:22;;;;;;;3.38;2.00;;;;;;;;;;5116268;28;20195;-63
2023/05/30 13:52:49;;;;;;;3.85;1.90;;;;;;;;;;5113768;28;20247;-62
2023/05/30 13:55:17;;;;;;;4.72;2.58;;;;;;;;;;5114255;28;20320;-63
2023/05/30 13:57:44;;;;;;;6.15;2.42;;;;;;;;;;5113607;28;20199;-62
2023/05/30 14:00:14;;;;;;;6.90;3.03;;;;;;;;;;5114493;28;20374;-62
2023/05/30 14:02:42;;;;;;;12.52;3.90;;;;;;;;;;5114298;27;20249;-62
2023/05/30 14:05:10;;;;;;;9.35;3.22;;;;;;;;;;5114801;28;20299;-63
2023/05/30 14:07:38;;;;;;;7.22;3.03;;;;;;;;;;5115437;28;20337;-63
2023/05/30 14:10:05;;;;;;;7.38;2.63;;;;;;;;;;5115732;28;20224;-63
2023/05/30 14:12:33;;;;;;;4.60;2.40;;;;;;;;;;5114717;28;20430;-63
2023/05/30 14:15:01;;;;;;;6.07;2.13;;;;;;;;;;5114947;28;20214;-63
2023/05/30 14:17:30;;;;;;;4.57;2.10;;;;;;;;;;5113601;28;20210;-63
2023/05/30 14:19:57;;;;;;;3.28;2.10;;;;;;;;;;5115488;28;20206;-63
2023/05/30 14:22:25;;;;;;;3.45;1.80;;;;;;;;;;5115460;28;20227;-63
2023/05/30 14:24:52;;;;;;;4.20;1.88;;;;;;;;;;5115370;28;20309;-63
2023/05/30 14:27:19;;;;;;;4.15;1.92;;;;;;;;;;5114291;28;20221;-63
2023/05/30 14:29:47;;;;;;;3.63;1.80;;;;;;;;;;5117333;28;20579;-62
2023/05/30 14:32:14;;;;;;;3.22;1.70;;;;;;;;;;5116941;28;20214;-62
2023/05/30 14:34:43;;;;;;;2.30;1.70;;;;;;;;;;5115082;28;20231;-63
2023/05/30 14:37:10;;;;;;;3.63;1.80;;;;;;;;;;5115448;28;20205;-63
2023/05/30 14:39:38;;;;;;;2.33;1.48;;;;;;;;;;5114261;28;20614;-62
2023/05/30 14:42:06;;;;;;;2.78;1.75;;;;;;;;;;5114914;27;20298;-63
2023/05/30 14:44:33;;;;;;;2.67;1.48;;;;;;;;;;5115567;28;20247;-62
2023/05/30 14:47:01;;;;;;;3.08;1.52;;;;;;;;;;5115417;28;20208;-62
2023/05/30 14:49:28;;;;;;;3.35;1.90;;;;;;;;;;5114287;28;20203;-63
2023/05/30 14:51:57;;;;;;;4.30;1.90;;;;;;;;;;5115147;28;20214;-63